Time;durP1;ratioP1;P1;durP2;ratioP2;P2;SDS_P1;SDS_P2;PMS_P1;PMS_P2;Temp;Humidity;BMP_temperature;BMP_pressure;BME280_temperature;BME280_humidity;BME280_pressure;Samples;Min_cycle;Max_cycle;Signal;HPM_P1;HPM_P2
2021/04/11 00:01:31;;;;;;;13.40;7.78;;;9.50;99.90;;;;;;4917359;29;20197;-83
2021/04/11 00:03:57;;;;;;;8.88;7.47;;;9.60;99.90;;;;;;4916917;29;20181;-83
2021/04/11 00:06:24;;;;;;;12.02;7.18;;;9.50;99.90;;;;;;4917320;29;20240;-82
2021/04/11 00:08:50;;;;;;;9.27;7.00;;;9.50;99.90;;;;;;4916479;29;20244;-83
2021/04/11 00:11:17;;;;;;;8.57;7.13;;;9.50;99.90;;;;;;4917325;29;20227;-82
2021/04/11 00:13:43;;;;;;;7.22;6.50;;;9.50;99.90;;;;;;4917913;29;20556;-83
2021/04/11 00:16:10;;;;;;;11.20;7.78;;;9.50;99.90;;;;;;4916897;29;20201;-83
2021/04/11 00:18:37;;;;;;;10.77;8.15;;;9.60;99.90;;;;;;4917101;29;20191;-83
2021/04/11 00:21:05;;;;;;;8.48;7.55;;;9.60;99.90;;;;;;4917347;29;20196;-83
2021/04/11 00:23:34;;;;;;;8.00;6.28;;;9.60;99.90;;;;;;4917255;29;20212;-83
2021/04/11 00:26:00;;;;;;;10.07;7.25;;;9.60;99.90;;;;;;4917293;29;20193;-82
2021/04/11 00:28:26;;;;;;;10.75;8.13;;;9.60;99.90;;;;;;4917495;29;20199;-82
2021/04/11 00:30:53;;;;;;;11.52;9.48;;;9.60;99.90;;;;;;4917006;29;20645;-83
2021/04/11 00:33:23;;;;;;;8.32;7.53;;;9.60;99.90;;;;;;4916892;29;20189;-82
2021/04/11 00:35:53;;;;;;;10.43;6.97;;;9.60;99.90;;;;;;4916901;29;20192;-82
2021/04/11 00:38:20;;;;;;;11.60;6.43;;;9.60;99.90;;;;;;4916983;29;20197;-83
2021/04/11 00:40:47;;;;;;;11.00;7.25;;;9.60;99.90;;;;;;4916782;29;20194;-83
2021/04/11 00:43:16;;;;;;;11.63;7.72;;;9.60;99.90;;;;;;4917189;29;20365;-84
2021/04/11 00:45:49;;;;;;;8.80;6.53;;;9.50;99.90;;;;;;4916307;29;20192;-83
2021/04/11 00:48:18;;;;;;;7.95;6.85;;;9.60;99.90;;;;;;4916670;29;20196;-83
2021/04/11 00:50:51;;;;;;;11.82;7.55;;;9.60;99.90;;;;;;4917556;29;20265;-83
2021/04/11 00:53:17;;;;;;;7.18;6.20;;;9.60;99.90;;;;;;4917804;29;20185;-83
2021/04/11 00:55:43;;;;;;;7.20;6.50;;;9.60;99.90;;;;;;4918611;29;20215;-83
2021/04/11 00:58:10;;;;;;;10.38;6.93;;;9.60;99.90;;;;;;4918599;29;20263;-83
2021/04/11 01:00:37;;;;;;;8.23;7.10;;;9.60;99.90;;;;;;4922297;29;20208;-83
2021/04/11 01:03:04;;;;;;;8.38;7.55;;;9.60;99.90;;;;;;4930566;29;20185;-83
2021/04/11 01:05:33;;;;;;;8.82;7.55;;;9.60;99.90;;;;;;4932239;29;20645;-83
2021/04/11 01:08:04;;;;;;;10.55;6.80;;;9.60;99.90;;;;;;4930896;29;20193;-83
2021/04/11 01:10:34;;;;;;;7.70;6.90;;;9.60;99.90;;;;;;4931053;29;20279;-83
2021/04/11 01:13:01;;;;;;;7.47;6.68;;;9.60;99.90;;;;;;4931813;29;20192;-83
2021/04/11 01:15:31;;;;;;;11.38;8.32;;;9.60;99.90;;;;;;4920049;29;20212;-83
2021/04/11 01:17:58;;;;;;;10.18;6.75;;;9.60;99.90;;;;;;4920700;29;20185;-83
2021/04/11 01:20:25;;;;;;;8.73;5.50;;;9.60;99.90;;;;;;4922529;29;20204;-83
2021/04/11 01:23:04;;;;;;;9.70;6.78;;;9.60;99.90;;;;;;4928390;29;20189;-84
2021/04/11 01:25:34;;;;;;;7.88;7.10;;;9.60;99.90;;;;;;4926413;29;20259;-83
2021/04/11 01:28:05;;;;;;;7.57;6.75;;;9.60;99.90;;;;;;4923381;29;20197;-83
2021/04/11 01:30:35;;;;;;;6.90;6.20;;;9.60;99.90;;;;;;4914832;29;20220;-84
2021/04/11 01:33:03;;;;;;;9.57;7.50;;;9.60;99.90;;;;;;4921618;29;20185;-83
2021/04/11 01:35:30;;;;;;;8.55;6.40;;;9.60;99.90;;;;;;4920965;29;20193;-82
2021/04/11 01:37:58;;;;;;;7.88;7.05;;;9.60;99.90;;;;;;4921110;29;20193;-83
2021/04/11 01:40:32;;;;;;;7.25;5.22;;;9.60;99.90;;;;;;4921228;29;20192;-83
2021/04/11 01:43:00;;;;;;;8.00;7.03;;;9.60;99.90;;;;;;4922341;29;20184;-83
2021/04/11 01:45:30;;;;;;;8.05;7.20;;;9.60;99.90;;;;;;4931632;29;20193;-83
2021/04/11 01:47:56;;;;;;;7.20;6.35;;;9.50;99.90;;;;;;4926049;29;20193;-83
2021/04/11 01:50:22;;;;;;;8.15;7.00;;;9.60;99.90;;;;;;4920473;29;20212;-83
2021/04/11 01:52:49;;;;;;;8.73;7.65;;;9.60;99.90;;;;;;4920748;29;20199;-84
2021/04/11 01:55:16;;;;;;;6.90;5.65;;;9.60;99.90;;;;;;4920588;29;20263;-83
2021/04/11 01:57:42;;;;;;;8.05;6.15;;;9.60;99.90;;;;;;4921084;29;20188;-83
2021/04/11 02:00:17;;;;;;;8.10;7.10;;;9.60;99.90;;;;;;4920356;29;20211;-83
2021/04/11 02:02:44;;;;;;;7.10;6.18;;;9.60;99.90;;;;;;4920338;29;20184;-83
2021/04/11 02:05:16;;;;;;;8.32;7.53;;;9.60;99.90;;;;;;4920142;29;20195;-83
2021/04/11 02:07:44;;;;;;;8.45;6.97;;;9.60;99.90;;;;;;4920304;29;20294;-83
2021/04/11 02:10:12;;;;;;;9.20;6.97;;;9.60;99.90;;;;;;4920090;29;20257;-82
2021/04/11 02:12:38;;;;;;;7.82;7.03;;;9.60;99.90;;;;;;4923326;29;20192;-83
2021/04/11 02:15:09;;;;;;;8.90;6.72;;;9.70;99.90;;;;;;4920172;29;20189;-83
2021/04/11 02:17:37;;;;;;;7.78;6.15;;;9.70;99.90;;;;;;4919923;29;20204;-84
2021/04/11 02:20:06;;;;;;;10.35;7.57;;;9.70;99.90;;;;;;4919983;29;20237;-83
2021/04/11 02:22:34;;;;;;;11.43;6.97;;;9.70;99.90;;;;;;4921110;29;20181;-83
2021/04/11 02:25:01;;;;;;;7.53;6.68;;;9.70;99.90;;;;;;4922581;29;20263;-83
2021/04/11 02:27:29;;;;;;;9.05;7.18;;;9.70;99.90;;;;;;4929320;29;20193;-82
2021/04/11 02:29:57;;;;;;;8.32;7.53;;;9.70;99.90;;;;;;4920624;29;20217;-84
2021/04/11 02:32:24;;;;;;;7.70;6.88;;;9.70;99.90;;;;;;4919788;29;20193;-83
2021/04/11 02:34:51;;;;;;;6.70;5.93;;;9.70;99.90;;;;;;4919785;29;20191;-84
2021/04/11 02:37:21;;;;;;;9.95;7.70;;;9.70;99.90;;;;;;4919913;29;20280;-84
2021/04/11 02:39:48;;;;;;;9.77;8.27;;;9.70;99.90;;;;;;4919790;29;20219;-84
2021/04/11 02:42:19;;;;;;;7.28;6.53;;;9.70;99.90;;;;;;4918966;29;20668;-83
2021/04/11 02:44:48;;;;;;;9.05;7.00;;;9.70;99.90;;;;;;4919548;29;20193;-83
2021/04/11 02:47:15;;;;;;;9.10;7.63;;;9.70;99.90;;;;;;4919606;29;20237;-83
2021/04/11 02:49:44;;;;;;;10.48;8.27;;;9.70;99.90;;;;;;4889078;29;20598;-83
2021/04/11 02:52:19;;;;;;;8.50;7.18;;;9.70;99.90;;;;;;4908670;29;20185;-83
2021/04/11 02:54:47;;;;;;;31.33;20.00;;;9.70;99.90;;;;;;4919037;29;20192;-82
2021/04/11 02:57:13;;;;;;;32.45;24.05;;;9.60;99.90;;;;;;4918899;29;20204;-82
2021/04/11 02:59:40;;;;;;;40.65;26.50;;;9.10;99.90;;;;;;4919020;29;20236;-82
2021/04/11 03:02:07;;;;;;;34.97;24.50;;;8.80;99.90;;;;;;4919769;29;20189;-84
2021/04/11 03:04:33;;;;;;;44.75;29.23;;;8.50;99.90;;;;;;4919561;29;20196;-83
2021/04/11 03:07:05;;;;;;;38.40;27.23;;;8.40;99.90;;;;;;4920039;29;20193;-83
2021/04/11 03:09:36;;;;;;;33.20;23.95;;;8.20;99.90;;;;;;4919436;29;20186;-84
2021/04/11 03:12:05;;;;;;;39.33;27.02;;;8.20;99.90;;;;;;4929034;29;20197;-82
2021/04/11 03:14:34;;;;;;;38.97;25.13;;;8.10;99.90;;;;;;4918757;29;20193;-83
2021/04/11 03:17:02;;;;;;;28.67;22.58;;;7.90;99.90;;;;;;4919422;29;20205;-83
2021/04/11 03:19:33;;;;;;;24.20;18.63;;;7.80;99.90;;;;;;4918803;29;20204;-83
2021/04/11 03:21:59;;;;;;;22.55;18.38;;;7.70;99.90;;;;;;4918578;29;20280;-84
2021/04/11 03:24:25;;;;;;;22.48;15.77;;;7.60;99.90;;;;;;4918493;29;20199;-85
2021/04/11 03:27:00;;;;;;;14.00;10.52;;;7.40;99.90;;;;;;4918468;29;20244;-85
2021/04/11 03:29:34;;;;;;;14.32;12.88;;;7.30;99.90;;;;;;4918562;29;20207;-84
2021/04/11 03:32:06;;;;;;;11.50;10.00;;;7.30;99.90;;;;;;4919056;29;20220;-84
2021/04/11 03:34:34;;;;;;;11.45;9.20;;;7.20;99.90;;;;;;4918816;29;20670;-85
2021/04/11 03:37:02;;;;;;;11.93;10.05;;;7.10;99.90;;;;;;4919456;29;20525;-85
2021/04/11 03:39:32;;;;;;;11.27;9.18;;;7.00;99.90;;;;;;4918954;29;20196;-85
2021/04/11 03:41:59;;;;;;;9.88;7.90;;;7.00;99.90;;;;;;4918771;29;20213;-85
2021/04/11 03:44:26;;;;;;;10.82;7.53;;;7.00;99.90;;;;;;4917486;29;20189;-84
2021/04/11 03:46:56;;;;;;;10.73;8.70;;;6.90;99.90;;;;;;4918595;29;20244;-84
2021/04/11 03:49:28;;;;;;;8.43;7.20;;;6.80;99.90;;;;;;4919161;29;20201;-84
2021/04/11 03:51:57;;;;;;;9.45;8.02;;;6.70;99.90;;;;;;4904566;29;20246;-84
2021/04/11 03:54:28;;;;;;;11.25;9.43;;;6.60;99.90;;;;;;4918033;29;20196;-84
2021/04/11 03:57:07;;;;;;;11.55;8.90;;;6.50;99.90;;;;;;4925915;29;20193;-84
2021/04/11 03:59:35;;;;;;;14.50;11.27;;;6.50;99.90;;;;;;4932718;29;20267;-84
2021/04/11 04:02:03;;;;;;;14.23;11.38;;;6.40;99.90;;;;;;4935075;29;20180;-84
2021/04/11 04:04:32;;;;;;;15.85;12.52;;;6.30;99.90;;;;;;4934614;29;20252;-84
2021/04/11 04:07:12;;;;;;;15.95;13.57;;;6.30;99.90;;;;;;4924562;29;20189;-85
2021/04/11 04:09:40;;;;;;;16.58;13.85;;;6.30;99.90;;;;;;4920418;29;20280;-84
2021/04/11 04:12:21;;;;;;;15.45;12.80;;;6.20;99.90;;;;;;4887702;29;20201;-85
2021/04/11 04:15:00;;;;;;;18.67;14.95;;;6.10;99.90;;;;;;4910305;29;20200;-84
2021/04/11 04:17:34;;;;;;;16.70;13.90;;;6.00;99.90;;;;;;4918353;29;20185;-84
2021/04/11 04:20:11;;;;;;;18.52;12.95;;;6.00;99.90;;;;;;4898220;29;20197;-84
2021/04/11 04:23:00;;;;;;;16.33;14.15;;;5.90;99.90;;;;;;4913469;29;20527;-85
2021/04/11 04:25:45;;;;;;;12.93;11.35;;;6.00;99.90;;;;;;4901075;29;20712;-84
2021/04/11 04:28:19;;;;;;;16.70;11.82;;;5.80;99.90;;;;;;4918067;29;20203;-84
2021/04/11 04:30:54;;;;;;;14.77;11.68;;;5.70;99.90;;;;;;4917772;29;20216;-84
2021/04/11 04:33:42;;;;;;;14.55;11.07;;;5.60;99.90;;;;;;4917854;29;20188;-85
2021/04/11 04:36:18;;;;;;;12.55;10.43;;;5.60;99.90;;;;;;4918211;29;20185;-84
2021/04/11 04:38:53;;;;;;;14.93;11.07;;;5.50;99.90;;;;;;4900940;29;20189;-84
2021/04/11 04:41:33;;;;;;;17.20;12.43;;;5.50;99.90;;;;;;4932299;29;20220;-84
2021/04/11 04:44:09;;;;;;;19.80;13.45;;;5.40;99.90;;;;;;4933498;29;20637;-84
2021/04/11 04:46:44;;;;;;;15.13;11.57;;;5.40;99.90;;;;;;4928764;29;20197;-84
2021/04/11 04:49:15;;;;;;;17.40;13.13;;;5.30;99.90;;;;;;4925736;29;20199;-83
2021/04/11 04:51:46;;;;;;;17.45;13.10;;;5.30;99.90;;;;;;4929192;29;20212;-83
2021/04/11 04:54:20;;;;;;;15.52;12.77;;;5.30;99.90;;;;;;4922824;29;20201;-84
2021/04/11 04:56:53;;;;;;;18.05;14.70;;;5.20;99.90;;;;;;4921427;29;20200;-84
2021/04/11 04:59:24;;;;;;;19.52;14.20;;;5.10;99.90;;;;;;4921310;29;20227;-84
2021/04/11 05:01:57;;;;;;;18.40;12.73;;;5.00;99.90;;;;;;4921379;29;20189;-84
2021/04/11 05:04:28;;;;;;;18.10;12.48;;;5.00;99.90;;;;;;4920851;29;20195;-84
2021/04/11 05:06:59;;;;;;;21.38;14.80;;;4.90;99.90;;;;;;4921029;29;20193;-84
2021/04/11 05:09:32;;;;;;;20.92;16.58;;;4.90;99.90;;;;;;4921329;29;20251;-84
2021/04/11 05:12:06;;;;;;;22.58;15.13;;;4.90;99.90;;;;;;4921479;29;20280;-84
2021/04/11 05:14:38;;;;;;;21.23;15.27;;;5.00;99.90;;;;;;4921218;29;20207;-84
2021/04/11 05:17:07;;;;;;;21.48;15.43;;;5.00;99.90;;;;;;4921476;29;20201;-84
2021/04/11 05:19:40;;;;;;;24.92;17.30;;;5.00;99.90;;;;;;4921510;29;20197;-84
2021/04/11 05:22:12;;;;;;;17.60;11.85;;;4.80;99.90;;;;;;4902962;29;20717;-84
2021/04/11 05:24:42;;;;;;;20.55;14.23;;;4.80;99.90;;;;;;4915653;29;20646;-84
2021/04/11 05:27:16;;;;;;;20.83;15.82;;;4.70;99.90;;;;;;4920744;29;20196;-84
2021/04/11 05:29:49;;;;;;;18.55;14.13;;;4.70;99.90;;;;;;4921349;29;20279;-84
2021/04/11 05:32:16;;;;;;;19.30;15.85;;;4.60;99.90;;;;;;4920598;29;20209;-84
2021/04/11 05:34:43;;;;;;;19.42;15.27;;;4.60;99.90;;;;;;4921009;29;20188;-84
2021/04/11 05:37:26;;;;;;;22.17;17.05;;;4.60;99.90;;;;;;4920943;29;20204;-85
2021/04/11 05:39:59;;;;;;;19.27;14.23;;;4.60;99.90;;;;;;4920514;29;20203;-84
2021/04/11 05:42:31;;;;;;;20.52;17.25;;;4.60;99.90;;;;;;4920838;29;20209;-85
2021/04/11 05:45:02;;;;;;;23.52;18.05;;;4.60;99.90;;;;;;4920662;29;20189;-84
2021/04/11 05:47:39;;;;;;;27.05;22.13;;;4.60;99.90;;;;;;4920441;29;20200;-84
2021/04/11 05:50:10;;;;;;;33.50;23.20;;;4.60;99.90;;;;;;4920073;29;20288;-85
2021/04/11 05:52:43;;;;;;;32.28;24.55;;;4.50;99.90;;;;;;4920390;29;20196;-85
2021/04/11 05:55:11;;;;;;;35.63;25.90;;;4.40;99.90;;;;;;4919816;29;20185;-84
2021/04/11 05:57:43;;;;;;;33.80;23.88;;;4.40;99.90;;;;;;4920182;29;20196;-83
2021/04/11 06:00:15;;;;;;;32.28;23.65;;;4.40;99.90;;;;;;4920547;29;20185;-84
2021/04/11 06:02:44;;;;;;;37.92;26.38;;;4.40;99.90;;;;;;4921051;29;20195;-84
2021/04/11 06:05:16;;;;;;;34.17;25.15;;;4.40;99.90;;;;;;4920395;29;20185;-83
2021/04/11 06:07:50;;;;;;;37.50;26.02;;;4.40;99.90;;;;;;4920436;29;20196;-84
2021/04/11 06:10:19;;;;;;;40.90;28.05;;;4.30;99.90;;;;;;4919232;29;20208;-85
2021/04/11 06:12:52;;;;;;;43.53;28.15;;;4.30;99.90;;;;;;4922351;29;20192;-84
2021/04/11 06:15:26;;;;;;;39.58;28.02;;;4.40;99.90;;;;;;4920151;29;20721;-84
2021/04/11 06:17:54;;;;;;;33.92;26.55;;;4.30;99.90;;;;;;4928302;29;20192;-84
2021/04/11 06:20:21;;;;;;;36.97;25.52;;;4.40;99.90;;;;;;4922047;29;20204;-84
2021/04/11 06:22:55;;;;;;;33.40;25.90;;;4.30;99.90;;;;;;4920134;29;20194;-84
2021/04/11 06:25:28;;;;;;;37.95;24.98;;;4.30;99.90;;;;;;4921339;29;20212;-85
2021/04/11 06:28:00;;;;;;;42.15;28.98;;;4.30;99.90;;;;;;4921532;29;20200;-85
2021/04/11 06:30:30;;;;;;;40.95;28.13;;;4.20;99.90;;;;;;4920803;29;20216;-83
2021/04/11 06:33:00;;;;;;;40.85;26.05;;;4.10;99.90;;;;;;4922337;29;20204;-83
2021/04/11 06:35:33;;;;;;;38.67;27.40;;;4.00;99.90;;;;;;4921718;29;20287;-84
2021/04/11 06:38:02;;;;;;;44.83;30.80;;;4.00;99.90;;;;;;4924147;29;20200;-83
2021/04/11 06:40:43;;;;;;;39.35;27.05;;;4.00;99.90;;;;;;4934817;29;20193;-84
2021/04/11 06:43:37;;;;;;;51.50;30.52;;;4.00;99.90;;;;;;4921487;29;20232;-84
2021/04/11 06:46:10;;;;;;;55.05;34.13;;;4.10;99.90;;;;;;4905819;29;20224;-84
2021/04/11 06:48:54;;;;;;;50.38;28.75;;;4.00;99.90;;;;;;4916206;29;20193;-83
2021/04/11 06:51:48;;;;;;;48.50;31.15;;;3.90;99.90;;;;;;4919471;29;20248;-84
2021/04/11 06:55:01;;;;;;;43.63;31.77;;;4.00;99.90;;;;;;4907519;29;20236;-83
2021/04/11 06:57:36;;;;;;;40.35;28.73;;;3.90;99.90;;;;;;4917587;29;20229;-83
2021/04/11 07:00:17;;;;;;;38.60;25.15;;;3.90;99.90;;;;;;4916806;29;20637;-84
2021/04/11 07:03:22;;;;;;;41.33;31.33;;;3.90;99.90;;;;;;4913333;29;20202;-83
2021/04/11 07:06:15;;;;;;;33.20;22.70;;;3.90;99.90;;;;;;4919226;29;20537;-82
2021/04/11 07:09:17;;;;;;;30.85;22.70;;;4.00;99.90;;;;;;4919443;29;20189;-82
2021/04/11 07:12:32;;;;;;;35.60;23.83;;;4.00;99.90;;;;;;4919131;29;20224;-82
2021/04/11 07:15:16;;;;;;;34.40;25.13;;;4.00;99.90;;;;;;4879902;29;20212;-83
2021/04/11 07:18:15;;;;;;;36.83;25.73;;;3.90;99.90;;;;;;4917877;29;20649;-83
2021/04/11 07:21:15;;;;;;;37.92;26.55;;;4.00;99.90;;;;;;4917392;29;20650;-83
2021/04/11 07:24:05;;;;;;;38.17;23.58;;;4.00;99.90;;;;;;4919245;29;20197;-83
2021/04/11 07:26:44;;;;;;;28.08;19.40;;;4.10;99.90;;;;;;4919488;29;20660;-83
2021/04/11 07:29:24;;;;;;;32.25;22.00;;;3.90;99.90;;;;;;4919800;29;20224;-83
2021/04/11 07:32:06;;;;;;;27.17;22.70;;;3.90;99.90;;;;;;4906473;29;20216;-83
2021/04/11 07:34:47;;;;;;;30.65;22.48;;;4.00;99.90;;;;;;4900412;29;20200;-83
2021/04/11 07:37:30;;;;;;;25.00;17.63;;;4.00;99.90;;;;;;4901298;29;20204;-83
2021/04/11 07:40:07;;;;;;;24.25;18.33;;;4.00;99.90;;;;;;4900847;29;20201;-82
2021/04/11 07:43:07;;;;;;;20.05;15.48;;;4.00;99.90;;;;;;4900586;29;20208;-82
2021/04/11 07:46:00;;;;;;;16.98;11.15;;;4.00;99.90;;;;;;4914043;29;20280;-83
2021/04/11 07:48:46;;;;;;;15.30;11.02;;;3.90;99.90;;;;;;4919193;29;20259;-83
2021/04/11 07:51:46;;;;;;;17.98;14.30;;;3.90;99.90;;;;;;4918975;29;20223;-83
2021/04/11 07:54:41;;;;;;;13.27;11.88;;;4.00;99.90;;;;;;4926597;29;20180;-83
2021/04/11 07:57:34;;;;;;;15.77;12.50;;;4.00;99.90;;;;;;4934122;29;20192;-83
2021/04/11 08:00:14;;;;;;;18.70;14.23;;;4.00;99.90;;;;;;4919992;29;20203;-83
2021/04/11 08:03:13;;;;;;;16.67;14.50;;;4.00;99.90;;;;;;4919061;29;20652;-83
2021/04/11 08:06:07;;;;;;;19.95;15.23;;;4.00;99.90;;;;;;4917959;29;20203;-84
2021/04/11 08:09:01;;;;;;;18.73;14.85;;;4.10;99.90;;;;;;4918358;29;20247;-84
2021/04/11 08:11:47;;;;;;;22.10;16.10;;;4.10;99.90;;;;;;4917931;29;20219;-83
2021/04/11 08:14:30;;;;;;;23.35;15.88;;;4.20;99.90;;;;;;4917680;29;20192;-83
2021/04/11 08:17:04;;;;;;;24.02;19.73;;;4.20;99.90;;;;;;4918449;29;20196;-83
2021/04/11 08:20:15;;;;;;;23.58;19.95;;;4.20;99.90;;;;;;4917676;29;20196;-83
2021/04/11 08:23:06;;;;;;;28.38;19.95;;;4.20;99.90;;;;;;4899437;29;20276;-83
2021/04/11 08:25:39;;;;;;;27.60;20.70;;;4.20;99.90;;;;;;4926697;29;20212;-82
2021/04/11 08:28:39;;;;;;;27.20;18.35;;;4.20;99.90;;;;;;4927569;29;20207;-82
2021/04/11 08:31:25;;;;;;;31.25;20.50;;;4.10;99.90;;;;;;4927121;29;20217;-84
2021/04/11 08:34:21;;;;;;;29.23;22.30;;;4.20;99.90;;;;;;4925493;29;20267;-84
2021/04/11 08:37:20;;;;;;;30.42;22.10;;;4.20;99.90;;;;;;4906765;29;20192;-83
2021/04/11 08:40:05;;;;;;;27.83;20.95;;;4.10;99.90;;;;;;4920531;29;20188;-83
2021/04/11 08:42:45;;;;;;;28.30;24.70;;;4.20;99.90;;;;;;4913029;29;20199;-84
2021/04/11 08:45:27;;;;;;;33.75;24.27;;;4.20;99.90;;;;;;4905263;29;20205;-83
2021/04/11 08:48:10;;;;;;;36.20;24.10;;;4.30;99.90;;;;;;4917125;29;20184;-83
2021/04/11 08:50:44;;;;;;;36.38;22.00;;;4.20;99.90;;;;;;4918452;29;20217;-83
2021/04/11 08:53:26;;;;;;;27.55;20.10;;;4.20;99.90;;;;;;4917840;29;20220;-83
2021/04/11 08:55:59;;;;;;;23.83;17.08;;;4.20;99.90;;;;;;4917808;29;20242;-83
2021/04/11 08:58:33;;;;;;;21.27;15.88;;;4.30;99.90;;;;;;4915681;29;20554;-84
2021/04/11 09:01:10;;;;;;;21.05;17.65;;;4.30;99.90;;;;;;4901570;29;20203;-82
2021/04/11 09:03:48;;;;;;;19.92;17.58;;;4.20;99.90;;;;;;4917906;29;20188;-84
2021/04/11 09:06:27;;;;;;;20.33;15.40;;;4.20;99.90;;;;;;4918707;29;20188;-83
2021/04/11 09:09:16;;;;;;;17.65;14.63;;;4.10;99.90;;;;;;4917861;29;20235;-83
2021/04/11 09:11:48;;;;;;;14.00;12.55;;;4.10;99.90;;;;;;4917520;29;20227;-82
2021/04/11 09:14:35;;;;;;;12.52;10.65;;;4.10;99.90;;;;;;4914462;29;20196;-84
2021/04/11 09:17:15;;;;;;;17.52;12.18;;;4.10;99.90;;;;;;4923309;29;20202;-83
2021/04/11 09:19:49;;;;;;;13.07;11.60;;;4.20;99.90;;;;;;4935209;29;20169;-84
2021/04/11 09:22:37;;;;;;;13.98;11.23;;;4.20;99.90;;;;;;4934508;29;20189;-85
2021/04/11 09:25:12;;;;;;;15.10;12.60;;;4.10;99.90;;;;;;4926882;29;20192;-84
2021/04/11 09:28:11;;;;;;;15.18;12.20;;;4.10;99.90;;;;;;4924353;29;20416;-86
2021/04/11 09:31:17;;;;;;;10.20;8.95;;;4.10;99.90;;;;;;4923028;29;20662;-85
2021/04/11 09:34:22;;;;;;;6.50;5.80;;;4.00;99.90;;;;;;4904030;29;20338;-85
2021/04/11 09:37:06;;;;;;;4.78;4.28;;;4.00;99.90;;;;;;4862901;29;20202;-85
2021/04/11 09:39:55;;;;;;;6.90;4.63;;;3.90;99.90;;;;;;4917619;29;20195;-84
2021/04/11 09:42:54;;;;;;;6.65;5.40;;;4.00;99.90;;;;;;4921217;29;20196;-85
2021/04/11 09:45:33;;;;;;;6.43;5.10;;;4.00;99.90;;;;;;4921035;29;20544;-84
2021/04/11 09:48:15;;;;;;;6.30;5.55;;;4.00;99.90;;;;;;4920813;29;20203;-83
2021/04/11 09:51:03;;;;;;;8.98;5.60;;;4.00;99.90;;;;;;4919569;29;20259;-84
2021/04/11 09:53:53;;;;;;;7.47;6.78;;;4.00;99.90;;;;;;4903053;29;20220;-84
2021/04/11 09:56:40;;;;;;;5.97;5.13;;;4.00;99.90;;;;;;4860018;29;20702;-84
2021/04/11 09:59:32;;;;;;;6.70;6.10;;;4.10;99.90;;;;;;4886588;29;20217;-85
2021/04/11 10:02:09;;;;;;;6.88;6.15;;;4.10;99.90;;;;;;4771173;29;20234;-85
2021/04/11 10:04:51;;;;;;;7.45;6.43;;;4.20;99.90;;;;;;4922635;29;20658;-84
2021/04/11 10:07:34;;;;;;;8.70;6.78;;;4.20;99.90;;;;;;4918831;29;20192;-83
2021/04/11 10:10:15;;;;;;;7.05;6.38;;;4.20;99.90;;;;;;4919868;29;20552;-85
2021/04/11 10:12:58;;;;;;;8.52;6.10;;;4.30;99.90;;;;;;4918901;29;20188;-84
2021/04/11 10:15:29;;;;;;;8.45;6.00;;;4.30;99.90;;;;;;4920887;29;20196;-83
2021/04/11 10:18:32;;;;;;;6.63;5.93;;;4.30;99.90;;;;;;4919634;29;20181;-83
2021/04/11 10:21:08;;;;;;;10.75;6.35;;;4.40;99.90;;;;;;4918914;29;20198;-85
2021/04/11 10:23:48;;;;;;;6.40;5.30;;;4.50;99.90;;;;;;4913191;29;20199;-84
2021/04/11 10:26:22;;;;;;;6.32;4.80;;;4.50;99.90;;;;;;4919110;29;20196;-84
2021/04/11 10:28:55;;;;;;;6.90;5.13;;;4.40;99.90;;;;;;4913601;29;20624;-85
2021/04/11 10:31:30;;;;;;;6.18;5.60;;;4.50;99.90;;;;;;4902792;29;20584;-84
2021/04/11 10:34:07;;;;;;;6.53;5.90;;;4.60;99.90;;;;;;4918470;29;20217;-84
2021/04/11 10:36:38;;;;;;;6.30;5.70;;;4.60;99.90;;;;;;4920415;29;20195;-85
2021/04/11 10:39:12;;;;;;;7.90;5.90;;;4.60;99.90;;;;;;4920563;29;20196;-85
2021/04/11 10:41:56;;;;;;;8.95;6.10;;;4.70;99.90;;;;;;4919865;29;20197;-84
2021/04/11 10:44:41;;;;;;;6.60;4.72;;;4.70;99.90;;;;;;4919003;29;20196;-84
2021/04/11 10:47:23;;;;;;;6.85;5.30;;;4.70;99.90;;;;;;4919326;29;20197;-84
2021/04/11 10:49:58;;;;;;;6.47;5.28;;;4.60;99.90;;;;;;4919690;29;20200;-84
2021/04/11 10:52:39;;;;;;;7.25;5.70;;;4.50;99.90;;;;;;4918966;29;20224;-84
2021/04/11 10:55:27;;;;;;;6.55;5.78;;;4.50;99.90;;;;;;4920708;29;20244;-84
2021/04/11 10:58:33;;;;;;;6.32;5.70;;;4.50;99.90;;;;;;4932862;29;20232;-84
2021/04/11 11:01:11;;;;;;;8.85;6.93;;;4.60;99.90;;;;;;4937145;29;20192;-84
2021/04/11 11:04:24;;;;;;;6.32;4.97;;;4.80;99.90;;;;;;4920143;29;20200;-84
2021/04/11 11:07:16;;;;;;;9.55;8.20;;;4.90;99.90;;;;;;4918862;29;20185;-84
2021/04/11 11:09:45;;;;;;;10.77;5.85;;;4.90;99.90;;;;;;4918992;29;20228;-83
2021/04/11 11:12:35;;;;;;;7.32;5.28;;;4.70;99.90;;;;;;4918680;29;20263;-85
2021/04/11 11:15:38;;;;;;;5.32;4.00;;;4.60;99.90;;;;;;4918546;29;20641;-85
2021/04/11 11:18:16;;;;;;;5.47;4.70;;;4.50;99.90;;;;;;4909657;29;20192;-85
2021/04/11 11:20:55;;;;;;;6.03;5.38;;;4.50;99.90;;;;;;4919119;29;20191;-84
2021/04/11 11:23:57;;;;;;;6.82;6.13;;;4.60;99.90;;;;;;4917728;29;20193;-84
2021/04/11 11:26:46;;;;;;;8.50;7.00;;;4.60;99.90;;;;;;4898036;29;20203;-85
2021/04/11 11:29:55;;;;;;;7.20;6.50;;;4.70;99.90;;;;;;4918658;29;20196;-86
2021/04/11 11:32:26;;;;;;;5.80;5.28;;;4.80;99.90;;;;;;4906368;29;20220;-85
2021/04/11 11:34:58;;;;;;;6.43;5.28;;;4.70;99.90;;;;;;4907299;29;20199;-86
2021/04/11 11:37:43;;;;;;;7.30;5.80;;;4.70;99.90;;;;;;4919064;29;20196;-85
2021/04/11 11:40:19;;;;;;;6.28;5.32;;;4.60;99.90;;;;;;4919128;29;20189;-86
2021/04/11 11:42:58;;;;;;;7.38;6.47;;;4.70;99.90;;;;;;4918364;29;20278;-85
2021/04/11 11:45:31;;;;;;;7.68;6.22;;;4.70;99.90;;;;;;4918820;29;20245;-85
2021/04/11 11:48:14;;;;;;;8.13;6.72;;;4.80;99.90;;;;;;4917981;29;20189;-86
2021/04/11 11:50:48;;;;;;;8.07;6.57;;;4.90;99.90;;;;;;4918790;29;20184;-85
2021/04/11 11:53:21;;;;;;;11.73;4.68;;;4.90;99.90;;;;;;4918773;29;20649;-85
2021/04/11 11:56:09;;;;;;;6.88;5.45;;;4.90;99.90;;;;;;4918487;29;20192;-85
2021/04/11 11:58:41;;;;;;;6.18;5.18;;;4.90;99.90;;;;;;4917911;29;20239;-85
2021/04/11 12:01:14;;;;;;;5.97;4.90;;;5.00;99.90;;;;;;4918506;29;20218;-84
2021/04/11 12:03:41;;;;;;;6.88;5.10;;;5.00;99.90;;;;;;4917902;29;20601;-85
2021/04/11 12:06:15;;;;;;;5.63;5.00;;;4.90;99.90;;;;;;4917735;29;20275;-84
2021/04/11 12:08:53;;;;;;;4.93;3.95;;;4.90;99.90;;;;;;4918490;29;20192;-85
2021/04/11 12:11:32;;;;;;;9.82;6.25;;;4.90;99.90;;;;;;4917833;29;20220;-84
2021/04/11 12:14:06;;;;;;;7.10;6.40;;;4.80;99.90;;;;;;4918053;29;20192;-84
2021/04/11 12:16:37;;;;;;;9.38;8.48;;;4.80;99.90;;;;;;4917836;29;20201;-84
2021/04/11 12:19:12;;;;;;;12.07;8.20;;;4.80;99.90;;;;;;4917706;29;20621;-84
2021/04/11 12:21:43;;;;;;;9.75;8.73;;;4.90;99.90;;;;;;4917881;29;20192;-85
2021/04/11 12:24:17;;;;;;;8.35;7.13;;;4.90;99.90;;;;;;4917694;29;20692;-85
2021/04/11 12:26:49;;;;;;;7.57;6.85;;;4.90;99.90;;;;;;4917810;29;20193;-85
2021/04/11 12:29:20;;;;;;;8.15;7.18;;;5.00;99.90;;;;;;4917747;29;20660;-85
2021/04/11 12:31:51;;;;;;;5.93;4.50;;;5.20;99.90;;;;;;4917689;29;20231;-85
2021/04/11 12:34:29;;;;;;;8.18;5.13;;;5.20;99.90;;;;;;4917576;29;20193;-85
2021/04/11 12:37:09;;;;;;;6.75;5.65;;;5.30;99.90;;;;;;4917476;29;20196;-85
2021/04/11 12:39:36;;;;;;;5.75;4.35;;;5.30;99.90;;;;;;4917346;29;20256;-85
2021/04/11 12:42:17;;;;;;;4.80;4.30;;;5.50;99.90;;;;;;4917195;29;20601;-85
2021/04/11 12:44:48;;;;;;;7.53;3.75;;;5.70;99.90;;;;;;4917324;29;20593;-85
2021/04/11 12:47:26;;;;;;;4.15;3.60;;;5.70;99.90;;;;;;4917471;29;20201;-84
2021/04/11 12:49:59;;;;;;;4.35;3.85;;;5.90;99.90;;;;;;4917856;29;20213;-85
2021/04/11 12:52:34;;;;;;;3.70;3.15;;;6.00;99.90;;;;;;4917858;29;20625;-84
2021/04/11 12:55:05;;;;;;;10.32;4.45;;;6.20;99.90;;;;;;4917296;29;20540;-85
2021/04/11 12:57:38;;;;;;;5.82;3.63;;;6.40;99.90;;;;;;4917322;29;20208;-85
2021/04/11 13:00:10;;;;;;;3.00;2.10;;;6.60;99.90;;;;;;4916877;29;20191;-85
2021/04/11 13:02:43;;;;;;;5.75;3.17;;;6.80;99.90;;;;;;4918110;29;20557;-85
2021/04/11 13:05:15;;;;;;;6.28;3.70;;;6.90;99.90;;;;;;4917093;29;20193;-85
2021/04/11 13:07:46;;;;;;;5.22;3.75;;;7.00;99.90;;;;;;4917131;29;20280;-85
2021/04/11 13:10:21;;;;;;;4.60;3.40;;;6.90;99.90;;;;;;4916439;29;20196;-84
2021/04/11 13:12:56;;;;;;;5.68;3.28;;;6.70;99.90;;;;;;4917046;29;20220;-85
2021/04/11 13:15:27;;;;;;;3.72;3.30;;;6.60;99.90;;;;;;4918052;29;20196;-84
2021/04/11 13:18:04;;;;;;;6.85;4.05;;;6.60;99.90;;;;;;4921214;29;20193;-84
2021/04/11 13:20:36;;;;;;;4.53;2.90;;;6.40;99.90;;;;;;4920666;29;20203;-85
2021/04/11 13:23:07;;;;;;;6.07;3.38;;;6.30;99.90;;;;;;4921138;29;20229;-85
2021/04/11 13:25:41;;;;;;;6.95;4.22;;;6.10;99.90;;;;;;4921153;29;20195;-85
2021/04/11 13:28:18;;;;;;;6.50;4.25;;;5.90;99.90;;;;;;4919528;29;20192;-85
2021/04/11 13:30:54;;;;;;;5.20;4.63;;;5.80;99.90;;;;;;4918519;29;20192;-84
2021/04/11 13:33:26;;;;;;;5.97;4.35;;;5.80;99.90;;;;;;4918631;29;20192;-85
2021/04/11 13:35:58;;;;;;;8.32;5.80;;;5.80;99.90;;;;;;4920961;29;20653;-85